createdAt,value
2023-10-06T00:02:29.627Z,5.05
2023-10-06T00:04:56.876Z,5.25
2023-10-06T00:07:25.120Z,4.68
2023-10-06T00:09:54.882Z,4.35
2023-10-06T00:12:21.780Z,4.90
2023-10-06T00:14:51.481Z,5.25
2023-10-06T00:17:18.636Z,4.50
2023-10-06T00:19:46.398Z,5.00
2023-10-06T00:22:18.641Z,5.15
2023-10-06T00:24:48.778Z,4.68
2023-10-06T00:27:15.666Z,4.22
2023-10-06T00:29:50.042Z,5.32
2023-10-06T00:32:22.689Z,5.00
2023-10-06T00:35:12.994Z,4.90
2023-10-06T00:37:40.842Z,5.60
2023-10-06T00:40:20.831Z,5.07
2023-10-06T00:42:52.071Z,4.63
2023-10-06T00:45:18.604Z,4.55
2023-10-06T00:47:45.263Z,4.40
2023-10-06T00:50:16.544Z,4.78
2023-10-06T00:55:13.351Z,4.50
2023-10-06T00:57:41.564Z,4.75
2023-10-06T01:00:21.366Z,4.60
2023-10-06T01:02:49.511Z,4.55
2023-10-06T01:05:17.591Z,4.07
2023-10-06T01:07:47.025Z,5.38
2023-10-06T01:10:18.468Z,4.78
2023-10-06T01:12:52.957Z,5.22
2023-10-06T01:15:20.709Z,4.45
2023-10-06T01:17:48.330Z,4.63
2023-10-06T01:20:34.406Z,4.82
2023-10-06T01:23:02.452Z,4.97
2023-10-06T01:25:35.963Z,5.10
2023-10-06T01:28:04.726Z,4.60
2023-10-06T01:30:31.273Z,5.90
2023-10-06T01:32:59.640Z,5.25
2023-10-06T01:35:27.684Z,4.85
2023-10-06T01:38:06.694Z,5.70
2023-10-06T01:40:33.626Z,5.07
2023-10-06T01:43:00.271Z,5.47
2023-10-06T01:45:29.794Z,4.63
2023-10-06T01:48:19.223Z,4.78
2023-10-06T01:50:49.766Z,5.35
2023-10-06T01:53:20.456Z,5.00
2023-10-06T01:55:52.522Z,4.97
2023-10-06T01:58:19.517Z,5.40
2023-10-06T02:00:48.719Z,4.75
2023-10-06T02:03:18.738Z,5.20
2023-10-06T02:05:45.733Z,5.18
2023-10-06T02:08:15.686Z,4.88
2023-10-06T02:10:43.909Z,5.00
2023-10-06T02:13:11.372Z,4.60
2023-10-06T02:15:37.886Z,4.85
2023-10-06T02:18:08.233Z,5.07
2023-10-06T02:20:36.047Z,5.60
2023-10-06T02:23:04.459Z,5.32
2023-10-06T02:25:32.924Z,5.25
2023-10-06T02:28:05.216Z,4.57
2023-10-06T02:30:35.158Z,4.70
2023-10-06T02:33:01.980Z,5.22
2023-10-06T02:35:28.693Z,4.80
2023-10-06T02:37:59.027Z,5.13
2023-10-06T02:40:44.981Z,5.25
2023-10-06T02:43:17.436Z,4.93
2023-10-06T02:45:44.984Z,5.10
2023-10-06T02:48:18.657Z,4.85
2023-10-06T02:50:50.537Z,5.85
2023-10-06T02:53:21.689Z,4.85
2023-10-06T02:55:56.643Z,5.10
2023-10-06T02:58:31.707Z,5.07
2023-10-06T03:00:58.861Z,5.13
2023-10-06T03:03:29.256Z,4.95
2023-10-06T03:05:58.082Z,4.97
2023-10-06T03:08:31.478Z,5.18
2023-10-06T03:10:58.105Z,5.78
2023-10-06T03:13:36.948Z,5.55
2023-10-06T03:16:11.577Z,5.28
2023-10-06T03:18:38.790Z,5.30
2023-10-06T03:21:16.946Z,5.38
2023-10-06T03:23:48.451Z,5.13
2023-10-06T03:26:26.480Z,5.53
2023-10-06T03:28:54.568Z,5.13
2023-10-06T03:31:22.031Z,5.55
2023-10-06T03:33:51.380Z,5.30
2023-10-06T03:36:38.106Z,5.45
2023-10-06T03:39:13.030Z,6.22
2023-10-06T03:41:45.132Z,5.65
2023-10-06T03:44:13.304Z,5.78
2023-10-06T03:46:41.036Z,5.53
2023-10-06T03:49:09.273Z,5.90
2023-10-06T03:51:39.680Z,5.90
2023-10-06T03:54:07.100Z,5.30
2023-10-06T03:56:33.687Z,5.63
2023-10-06T03:59:14.020Z,5.07
2023-10-06T04:01:43.650Z,5.38
2023-10-06T04:04:10.487Z,5.32
2023-10-06T04:06:37.419Z,5.78
2023-10-06T04:09:04.269Z,4.80
2023-10-06T04:11:35.319Z,5.45
2023-10-06T04:14:02.261Z,5.85
2023-10-06T04:16:28.954Z,5.60
2023-10-06T04:18:55.555Z,5.72
2023-10-06T04:21:25.290Z,5.15
2023-10-06T04:23:52.017Z,5.22
2023-10-06T04:26:19.298Z,5.20
2023-10-06T04:28:47.820Z,5.22
2023-10-06T04:31:16.420Z,4.97
2023-10-06T04:33:43.590Z,6.15
2023-10-06T04:36:11.024Z,5.75
2023-10-06T04:38:41.211Z,6.05
2023-10-06T04:41:10.124Z,5.50
2023-10-06T04:43:37.952Z,6.25
2023-10-06T04:46:07.795Z,5.80
2023-10-06T04:48:36.992Z,5.05
2023-10-06T04:51:07.169Z,5.53
2023-10-06T04:53:37.068Z,5.82
2023-10-06T04:56:05.069Z,5.70
2023-10-06T04:58:32.238Z,5.30
2023-10-06T05:01:01.844Z,5.53
2023-10-06T05:03:28.688Z,5.22
2023-10-06T05:05:58.360Z,7.38
2023-10-06T05:08:25.946Z,6.30
2023-10-06T05:10:53.939Z,5.68
2023-10-06T05:13:21.624Z,5.63
2023-10-06T05:15:48.347Z,6.00
2023-10-06T05:18:17.918Z,5.82
2023-10-06T05:20:44.994Z,6.00
2023-10-06T05:23:15.539Z,5.88
2023-10-06T05:25:48.528Z,5.30
2023-10-06T05:28:18.418Z,5.00
2023-10-06T05:30:46.450Z,5.75
2023-10-06T05:33:15.350Z,5.75
2023-10-06T05:35:42.520Z,5.50
2023-10-06T05:38:14.340Z,5.25
2023-10-06T05:40:42.013Z,5.90
2023-10-06T05:43:17.266Z,5.90
2023-10-06T05:45:45.092Z,4.97
2023-10-06T05:48:13.016Z,5.35
2023-10-06T05:50:41.651Z,4.97
2023-10-06T05:53:13.892Z,5.45
2023-10-06T05:55:44.505Z,5.20
2023-10-06T05:58:15.422Z,5.70
2023-10-06T06:00:52.490Z,5.63
2023-10-06T06:03:24.448Z,5.47
2023-10-06T06:05:53.424Z,4.75
2023-10-06T06:08:23.072Z,5.10
2023-10-06T06:10:49.970Z,5.05
2023-10-06T06:13:20.074Z,5.15
2023-10-06T06:15:52.361Z,5.55
2023-10-06T06:18:19.014Z,5.43
2023-10-06T06:20:46.956Z,5.32
2023-10-06T06:23:13.900Z,4.72
2023-10-06T06:25:41.509Z,5.47
2023-10-06T06:28:09.259Z,4.70
2023-10-06T06:30:38.190Z,5.28
2023-10-06T06:33:06.208Z,4.68
2023-10-06T06:35:36.501Z,4.90
2023-10-06T06:38:06.205Z,4.80
2023-10-06T06:40:33.918Z,5.22
2023-10-06T06:43:04.338Z,4.43
2023-10-06T06:45:30.972Z,4.90
2023-10-06T06:47:57.618Z,4.80
2023-10-06T06:50:24.233Z,4.13
2023-10-06T06:52:55.598Z,4.82
2023-10-06T06:55:22.366Z,4.75
2023-10-06T06:57:56.050Z,4.38
2023-10-06T07:00:23.488Z,4.57
2023-10-06T07:02:51.618Z,4.47
2023-10-06T07:05:22.388Z,4.18
2023-10-06T07:07:51.871Z,4.18
2023-10-06T07:10:23.998Z,4.57
2023-10-06T07:12:53.761Z,4.22
2023-10-06T07:15:21.573Z,4.30
2023-10-06T07:17:50.607Z,4.03
2023-10-06T07:20:19.188Z,4.22
2023-10-06T07:22:48.701Z,4.65
2023-10-06T07:25:19.064Z,4.10
2023-10-06T07:28:04.051Z,4.15
2023-10-06T07:30:35.445Z,3.55
2023-10-06T07:33:04.403Z,3.63
2023-10-06T07:35:32.810Z,3.72
2023-10-06T07:37:59.631Z,3.50
2023-10-06T07:40:28.681Z,3.88
2023-10-06T07:42:56.218Z,3.53
2023-10-06T07:45:24.821Z,3.78
2023-10-06T07:47:51.780Z,3.65
2023-10-06T07:50:18.503Z,4.15
2023-10-06T07:52:47.524Z,4.03
2023-10-06T07:55:14.853Z,3.28
2023-10-06T07:57:46.814Z,3.50
2023-10-06T08:00:19.955Z,3.70
2023-10-06T08:02:46.834Z,2.95
2023-10-06T08:05:17.581Z,3.10
2023-10-06T08:07:45.159Z,3.30
2023-10-06T08:10:14.873Z,3.58
2023-10-06T08:12:45.379Z,3.33
2023-10-06T08:15:17.995Z,3.43
2023-10-06T08:18:02.797Z,4.30
2023-10-06T08:20:31.203Z,2.80
2023-10-06T08:22:58.705Z,3.20
2023-10-06T08:25:26.345Z,3.70
2023-10-06T08:27:53.717Z,2.90
2023-10-06T08:30:20.854Z,3.75
2023-10-06T08:32:48.877Z,3.58
2023-10-06T08:35:15.765Z,3.03
2023-10-06T08:37:47.163Z,3.30
2023-10-06T08:42:50.434Z,3.07
2023-10-06T08:45:22.054Z,3.17
2023-10-06T08:48:01.473Z,3.03
2023-10-06T08:50:33.053Z,2.92
2023-10-06T08:53:02.160Z,3.40
2023-10-06T08:55:29.210Z,3.30
2023-10-06T08:58:00.295Z,2.92
2023-10-06T09:00:32.820Z,2.65
2023-10-06T09:03:08.869Z,3.15
2023-10-06T09:05:38.596Z,3.53
2023-10-06T09:08:08.513Z,3.05
2023-10-06T09:10:37.298Z,3.10
2023-10-06T09:13:13.628Z,3.38
2023-10-06T09:15:41.620Z,3.25
2023-10-06T09:18:23.474Z,3.55
2023-10-06T09:23:37.950Z,3.65
2023-10-06T09:26:06.534Z,3.35
2023-10-06T09:28:33.259Z,3.17
2023-10-06T09:31:06.313Z,3.50
2023-10-06T09:33:39.325Z,2.88
2023-10-06T09:36:12.458Z,3.70
2023-10-06T09:38:40.763Z,3.30
2023-10-06T09:41:08.894Z,3.78
2023-10-06T09:43:39.845Z,3.75
2023-10-06T09:46:08.138Z,3.05
2023-10-06T09:48:38.872Z,2.75
2023-10-06T09:51:08.412Z,3.10
2023-10-06T09:53:44.914Z,2.45
2023-10-06T09:56:13.918Z,3.50
2023-10-06T09:58:42.533Z,3.10
2023-10-06T10:01:11.645Z,2.67
2023-10-06T10:03:39.003Z,3.10
2023-10-06T10:06:06.137Z,2.97
2023-10-06T10:08:33.792Z,3.35
2023-10-06T10:11:08.399Z,2.70
2023-10-06T10:13:52.143Z,3.08
2023-10-06T10:16:39.781Z,3.17
2023-10-06T10:19:09.076Z,2.97
2023-10-06T10:21:37.384Z,2.97
2023-10-06T10:24:42.705Z,2.88
2023-10-06T10:26:54.509Z,3.67
2023-10-06T10:29:21.194Z,3.00
2023-10-06T10:32:17.140Z,2.78
2023-10-06T10:35:10.825Z,2.85
2023-10-06T10:37:53.353Z,3.50
2023-10-06T10:40:27.780Z,3.30
2023-10-06T10:43:06.594Z,2.45
2023-10-06T10:45:45.095Z,2.65
2023-10-06T10:48:16.483Z,2.88
2023-10-06T10:51:06.805Z,2.80
2023-10-06T10:53:38.622Z,2.80
2023-10-06T10:56:07.826Z,2.67
2023-10-06T10:58:46.384Z,3.22
2023-10-06T11:01:30.663Z,2.78
2023-10-06T11:04:38.573Z,2.92
2023-10-06T11:07:13.314Z,3.08
2023-10-06T11:09:53.393Z,3.10
2023-10-06T11:12:24.194Z,3.40
2023-10-06T11:14:53.788Z,3.13
2023-10-06T11:17:22.125Z,3.45
2023-10-06T11:20:16.896Z,3.50
2023-10-06T11:22:56.652Z,3.55
2023-10-06T11:25:29.846Z,3.28
2023-10-06T11:28:04.983Z,3.08
2023-10-06T11:30:40.048Z,3.22
2023-10-06T11:33:08.361Z,3.75
2023-10-06T11:35:35.394Z,3.25
2023-10-06T11:38:12.200Z,3.60
2023-10-06T11:40:39.229Z,3.10
2023-10-06T11:43:16.104Z,3.45
2023-10-06T11:45:44.043Z,3.10
2023-10-06T11:48:30.113Z,3.30
2023-10-06T11:51:07.407Z,3.40
2023-10-06T11:53:38.681Z,3.25
2023-10-06T11:56:14.131Z,3.40
2023-10-06T11:58:42.437Z,3.20
2023-10-06T12:01:37.949Z,3.58
2023-10-06T12:04:09.349Z,3.10
2023-10-06T12:06:42.781Z,3.53
2023-10-06T12:09:13.757Z,2.60
2023-10-06T12:11:40.398Z,3.22
2023-10-06T12:14:07.028Z,3.13
2023-10-06T12:16:34.922Z,3.88
2023-10-06T12:19:01.565Z,3.40
2023-10-06T12:21:28.165Z,3.40
2023-10-06T12:23:55.342Z,3.35
2023-10-06T12:26:22.190Z,3.40
2023-10-06T12:28:49.342Z,3.40
2023-10-06T12:31:15.884Z,3.58
2023-10-06T12:33:42.691Z,3.50
2023-10-06T12:36:10.336Z,3.17
2023-10-06T12:38:37.398Z,2.75
2023-10-06T12:41:08.487Z,3.15
2023-10-06T12:46:05.404Z,3.15
2023-10-06T12:48:33.438Z,3.42
2023-10-06T12:51:00.085Z,3.60
2023-10-06T12:53:26.714Z,3.00
2023-10-06T12:55:57.576Z,2.92
2023-10-06T12:58:24.382Z,3.20
2023-10-06T13:00:50.933Z,3.15
2023-10-06T13:03:17.966Z,2.95
2023-10-06T13:05:49.441Z,3.15
2023-10-06T13:08:18.502Z,2.85
2023-10-06T13:10:45.324Z,3.28
2023-10-06T13:13:13.595Z,2.97
2023-10-06T13:15:41.495Z,2.88
2023-10-06T13:18:10.700Z,3.20
2023-10-06T13:20:37.399Z,3.78
2023-10-06T13:23:08.136Z,3.42
2023-10-06T13:25:38.450Z,3.38
2023-10-06T13:28:11.631Z,3.15
2023-10-06T13:30:39.435Z,3.85
2023-10-06T13:33:06.150Z,3.58
2023-10-06T13:35:32.780Z,3.35
2023-10-06T13:37:59.446Z,3.38
2023-10-06T13:40:26.031Z,3.13
2023-10-06T13:42:53.445Z,3.47
2023-10-06T13:45:23.478Z,3.10
2023-10-06T13:47:54.810Z,2.75
2023-10-06T13:50:22.896Z,3.17
2023-10-06T13:52:52.724Z,3.35
2023-10-06T13:55:21.442Z,3.50
2023-10-06T13:57:52.695Z,3.10
2023-10-06T14:03:01.439Z,3.50
2023-10-06T14:05:34.639Z,3.20
2023-10-06T14:08:03.538Z,3.00
2023-10-06T14:10:32.319Z,2.88
2023-10-06T14:13:06.388Z,2.85
2023-10-06T14:15:42.797Z,2.85
2023-10-06T14:18:14.531Z,2.88
2023-10-06T14:20:44.767Z,2.83
2023-10-06T14:23:13.108Z,3.42
2023-10-06T14:25:41.641Z,2.75
2023-10-06T14:28:10.354Z,2.92
2023-10-06T14:30:42.675Z,3.20
2023-10-06T14:33:13.151Z,3.38
2023-10-06T14:35:59.299Z,2.90
2023-10-06T14:38:33.676Z,3.35
2023-10-06T14:41:20.415Z,3.50
2023-10-06T14:44:13.453Z,3.58
2023-10-06T14:46:41.822Z,3.08
2023-10-06T14:49:14.124Z,3.33
2023-10-06T14:51:42.760Z,3.03
2023-10-06T14:54:11.143Z,3.38
2023-10-06T14:56:38.513Z,3.63
2023-10-06T14:59:09.593Z,3.53
2023-10-06T15:01:37.501Z,3.47
2023-10-06T15:04:06.626Z,3.90
2023-10-06T15:06:34.534Z,3.50
2023-10-06T15:09:01.182Z,3.35
2023-10-06T15:11:29.398Z,3.50
2023-10-06T15:13:56.148Z,3.95
2023-10-06T15:16:23.253Z,3.15
2023-10-06T15:18:49.984Z,3.75
2023-10-06T15:21:18.392Z,3.42
2023-10-06T15:23:51.171Z,3.55
2023-10-06T15:26:22.177Z,3.72
2023-10-06T15:28:48.999Z,3.67
2023-10-06T15:31:16.585Z,3.50
2023-10-06T15:33:47.396Z,3.35
2023-10-06T15:36:15.543Z,3.75
2023-10-06T15:38:48.759Z,3.90
2023-10-06T15:41:18.224Z,3.17
2023-10-06T15:43:48.818Z,3.50
2023-10-06T15:46:16.523Z,4.03
2023-10-06T15:48:43.309Z,3.53
2023-10-06T15:51:14.138Z,3.20
2023-10-06T15:53:44.231Z,3.10
2023-10-06T15:56:15.159Z,3.45
2023-10-06T15:58:43.204Z,2.85
2023-10-06T16:01:13.122Z,3.47
2023-10-06T16:03:41.913Z,3.30
2023-10-06T16:06:12.640Z,3.03
2023-10-06T16:08:40.596Z,3.20
2023-10-06T16:11:08.884Z,3.00
2023-10-06T16:13:36.246Z,3.13
2023-10-06T16:16:12.113Z,2.60
2023-10-06T16:18:40.029Z,3.03
2023-10-06T16:21:08.000Z,3.25
2023-10-06T16:23:34.743Z,3.63
2023-10-06T16:26:03.270Z,3.80
2023-10-06T16:28:30.511Z,3.35
2023-10-06T16:31:00.203Z,3.08
2023-10-06T16:33:27.630Z,2.85
2023-10-06T16:35:57.170Z,3.50
2023-10-06T16:38:24.622Z,3.70
2023-10-06T16:40:51.185Z,3.15
2023-10-06T16:43:17.756Z,2.95
2023-10-06T16:45:45.302Z,3.00
2023-10-06T16:48:12.623Z,2.72
2023-10-06T16:50:42.991Z,3.33
2023-10-06T16:53:13.191Z,3.40
2023-10-06T16:55:40.028Z,3.10
2023-10-06T16:58:07.139Z,3.33
2023-10-06T17:00:38.007Z,3.00
2023-10-06T17:03:05.029Z,3.45
2023-10-06T17:05:32.084Z,3.33
2023-10-06T17:07:59.458Z,3.40
2023-10-06T17:10:28.447Z,3.53
2023-10-06T17:12:54.962Z,3.60
2023-10-06T17:15:23.089Z,3.15
2023-10-06T17:17:49.832Z,3.28
2023-10-06T17:20:18.243Z,3.45
2023-10-06T17:22:45.696Z,3.55
2023-10-06T17:25:15.779Z,3.10
2023-10-06T17:27:45.640Z,3.95
2023-10-06T17:30:16.861Z,3.38
2023-10-06T17:32:46.837Z,3.78
2023-10-06T17:35:15.021Z,2.88
2023-10-06T17:37:42.929Z,2.92
2023-10-06T17:40:12.841Z,3.83
2023-10-06T17:42:46.990Z,3.13
2023-10-06T17:45:14.445Z,3.63
2023-10-06T17:47:41.052Z,3.03
2023-10-06T17:50:08.310Z,3.03
2023-10-06T17:52:35.127Z,3.30
2023-10-06T17:55:01.720Z,3.70
2023-10-06T17:57:28.256Z,3.35
2023-10-06T17:59:54.891Z,3.05
2023-10-06T18:02:22.004Z,3.63
2023-10-06T18:04:49.742Z,2.97
2023-10-06T18:07:16.617Z,3.30
2023-10-06T18:09:43.270Z,3.50
2023-10-06T18:12:24.664Z,3.58
2023-10-06T18:14:52.481Z,3.45
2023-10-06T18:17:21.188Z,3.67
2023-10-06T18:19:48.260Z,3.55
2023-10-06T18:22:14.942Z,3.33
2023-10-06T18:24:41.520Z,3.30
2023-10-06T18:27:08.639Z,3.42
2023-10-06T18:29:35.892Z,3.42
2023-10-06T18:32:02.899Z,3.55
2023-10-06T18:34:30.843Z,3.58
2023-10-06T18:36:58.992Z,3.53
2023-10-06T18:39:25.770Z,3.92
2023-10-06T18:41:52.497Z,3.30
2023-10-06T18:44:19.105Z,3.45
2023-10-06T18:46:46.489Z,3.45
2023-10-06T18:49:14.262Z,3.42
2023-10-06T18:51:42.051Z,3.60
2023-10-06T18:54:09.074Z,3.30
2023-10-06T18:56:36.940Z,3.47
2023-10-06T18:59:04.262Z,3.95
2023-10-06T19:01:31.163Z,3.40
2023-10-06T19:03:57.867Z,3.45
2023-10-06T19:06:25.866Z,3.13
2023-10-06T19:08:52.874Z,4.25
2023-10-06T19:11:20.511Z,3.92
2023-10-06T19:13:47.827Z,4.45
2023-10-06T19:16:15.121Z,4.05
2023-10-06T19:18:43.601Z,3.80
2023-10-06T19:21:12.220Z,3.90
2023-10-06T19:23:40.326Z,3.75
2023-10-06T19:26:17.660Z,3.95
2023-10-06T19:28:44.349Z,3.47
2023-10-06T19:31:11.091Z,3.65
2023-10-06T19:33:45.165Z,3.88
2023-10-06T19:36:13.980Z,3.90
2023-10-06T19:38:41.730Z,3.42
2023-10-06T19:41:12.094Z,3.85
2023-10-06T19:43:38.674Z,3.72
2023-10-06T19:46:08.756Z,4.05
2023-10-06T19:48:35.906Z,3.83
2023-10-06T19:51:04.450Z,4.05
2023-10-06T19:53:31.349Z,4.43
2023-10-06T19:55:58.264Z,3.70
2023-10-06T19:58:24.848Z,3.95
2023-10-06T20:00:51.506Z,3.90
2023-10-06T20:03:18.252Z,4.57
2023-10-06T20:05:44.915Z,3.97
2023-10-06T20:08:11.747Z,3.72
2023-10-06T20:10:38.406Z,3.95
2023-10-06T20:13:06.983Z,3.92
2023-10-06T20:15:35.462Z,3.75
2023-10-06T20:18:02.445Z,3.45
2023-10-06T20:20:31.097Z,3.85
2023-10-06T20:22:58.322Z,3.50
2023-10-06T20:25:25.993Z,4.03
2023-10-06T20:27:53.393Z,4.28
2023-10-06T20:30:21.688Z,4.75
2023-10-06T20:32:54.124Z,3.80
2023-10-06T20:35:22.343Z,4.32
2023-10-06T20:37:49.053Z,3.78
2023-10-06T20:40:25.754Z,4.07
2023-10-06T20:42:57.362Z,4.30
2023-10-06T20:45:27.668Z,3.67
2023-10-06T20:47:57.683Z,4.00
2023-10-06T20:50:25.328Z,3.47
2023-10-06T20:52:54.077Z,4.60
2023-10-06T20:55:21.473Z,4.00
2023-10-06T20:57:49.349Z,4.22
2023-10-06T21:00:19.001Z,3.95
2023-10-06T21:02:47.379Z,4.00
2023-10-06T21:05:16.524Z,4.13
2023-10-06T21:07:43.392Z,3.85
2023-10-06T21:10:11.249Z,4.07
2023-10-06T21:12:39.174Z,4.10
2023-10-06T21:15:09.906Z,4.25
2023-10-06T21:17:38.843Z,4.10
2023-10-06T21:20:08.532Z,3.78
2023-10-06T21:22:35.382Z,3.85
2023-10-06T21:25:02.253Z,4.10
2023-10-06T21:27:29.317Z,4.22
2023-10-06T21:29:56.223Z,4.22
2023-10-06T21:32:22.774Z,4.10
2023-10-06T21:34:49.696Z,3.80
2023-10-06T21:37:16.469Z,4.80
2023-10-06T21:39:45.421Z,4.55
2023-10-06T21:42:12.128Z,4.30
2023-10-06T21:44:38.795Z,4.45
2023-10-06T21:47:05.524Z,4.30
2023-10-06T21:49:32.215Z,4.68
2023-10-06T21:51:59.391Z,4.95
2023-10-06T21:54:26.146Z,4.72
2023-10-06T21:56:53.013Z,4.85
2023-10-06T21:59:19.820Z,4.47
2023-10-06T22:01:46.430Z,4.32
2023-10-06T22:04:14.613Z,5.07
2023-10-06T22:06:41.455Z,4.55
2023-10-06T22:09:16.241Z,4.72
2023-10-06T22:11:45.232Z,4.88
2023-10-06T22:14:13.346Z,5.15
2023-10-06T22:16:41.164Z,5.32
2023-10-06T22:19:11.499Z,4.75
2023-10-06T22:21:38.291Z,5.25
2023-10-06T22:24:06.639Z,4.07
2023-10-06T22:26:33.250Z,5.07
2023-10-06T22:29:00.261Z,5.00
2023-10-06T22:31:28.210Z,4.43
2023-10-06T22:33:57.994Z,4.43
2023-10-06T22:36:25.098Z,4.53
2023-10-06T22:38:51.943Z,4.57
2023-10-06T22:41:18.780Z,4.20
2023-10-06T22:43:45.786Z,4.25
2023-10-06T22:46:12.369Z,4.18
2023-10-06T22:48:40.047Z,4.57
2023-10-06T22:51:08.126Z,4.45
2023-10-06T22:53:39.431Z,4.22
2023-10-06T22:58:33.720Z,4.03
2023-10-06T23:01:01.232Z,3.92
2023-10-06T23:03:30.292Z,4.63
2023-10-06T23:05:57.747Z,4.15
2023-10-06T23:08:24.312Z,3.90
2023-10-06T23:10:51.064Z,3.40
2023-10-06T23:13:17.686Z,3.42
2023-10-06T23:15:47.796Z,3.75
2023-10-06T23:18:18.129Z,3.72
2023-10-06T23:20:47.229Z,4.13
2023-10-06T23:23:13.840Z,3.80
2023-10-06T23:25:50.870Z,3.50
2023-10-06T23:28:18.089Z,3.55
2023-10-06T23:30:44.754Z,3.83
2023-10-06T23:33:12.334Z,3.60
2023-10-06T23:35:39.338Z,4.30
2023-10-06T23:38:12.681Z,3.90
2023-10-06T23:40:39.727Z,3.10
2023-10-06T23:43:09.794Z,3.47
2023-10-06T23:45:37.981Z,3.58
2023-10-06T23:48:10.762Z,3.83
2023-10-06T23:50:42.094Z,3.35
2023-10-06T23:53:10.242Z,3.53
2023-10-06T23:55:42.879Z,3.42
2023-10-06T23:58:17.431Z,3.78
